createdAt,value
2023-06-30T00:00:29.768Z,70.85
2023-06-30T00:03:32.819Z,70.31
2023-06-30T00:06:35.887Z,70.79
2023-06-30T00:09:40.083Z,70.21
2023-06-30T00:12:42.968Z,69.13
2023-06-30T00:15:45.987Z,69.01
2023-06-30T00:18:49.352Z,68.96
2023-06-30T00:21:53.594Z,69.12
2023-06-30T00:24:59.661Z,69.71
2023-06-30T00:28:02.531Z,70.77
2023-06-30T00:31:05.423Z,70.22
2023-06-30T00:34:08.279Z,71.36
2023-06-30T00:37:11.040Z,71.30
2023-06-30T00:40:16.367Z,71.85
2023-06-30T00:43:19.260Z,72.69
2023-06-30T00:46:22.126Z,73.35
2023-06-30T00:49:25.267Z,73.91
2023-06-30T00:52:28.184Z,74.79
2023-06-30T00:55:33.180Z,74.91
2023-06-30T00:58:36.044Z,74.79
2023-06-30T01:01:45.128Z,76.55
2023-06-30T01:04:55.064Z,76.88
2023-06-30T01:08:04.011Z,77.50
2023-06-30T01:11:10.003Z,77.76
2023-06-30T01:14:13.546Z,78.20
2023-06-30T01:17:19.577Z,78.00
2023-06-30T01:20:23.574Z,77.87
2023-06-30T01:23:35.646Z,78.68
2023-06-30T01:26:42.180Z,78.16
2023-06-30T01:29:45.320Z,79.49
2023-06-30T01:32:48.977Z,78.93
2023-06-30T01:35:51.944Z,79.67
2023-06-30T01:38:54.697Z,79.63
2023-06-30T01:41:59.003Z,79.88
2023-06-30T01:45:03.256Z,80.32
2023-06-30T01:48:06.941Z,81.23
2023-06-30T01:51:11.360Z,81.30
2023-06-30T01:54:14.233Z,80.53
2023-06-30T01:57:18.449Z,81.40
2023-06-30T02:00:21.325Z,81.62
2023-06-30T02:03:24.306Z,82.22
2023-06-30T02:06:27.263Z,81.97
2023-06-30T02:09:42.669Z,82.91
2023-06-30T02:12:51.275Z,83.03
2023-06-30T02:15:54.192Z,83.42
2023-06-30T02:18:56.962Z,82.90
2023-06-30T02:21:59.843Z,82.57
2023-06-30T02:25:02.583Z,82.58
2023-06-30T02:28:07.182Z,82.12
2023-06-30T02:31:10.071Z,81.62
2023-06-30T02:34:13.024Z,81.39
2023-06-30T02:37:16.094Z,81.28
2023-06-30T02:40:19.002Z,81.79
2023-06-30T02:43:23.353Z,82.40
2023-06-30T02:46:26.156Z,82.83
2023-06-30T02:49:29.512Z,81.95
2023-06-30T02:52:34.422Z,82.92
2023-06-30T02:55:39.338Z,83.02
2023-06-30T02:58:43.743Z,82.86
2023-06-30T03:01:46.577Z,82.72
2023-06-30T03:04:49.330Z,81.96
2023-06-30T03:07:52.052Z,82.23
2023-06-30T03:10:54.949Z,82.55
2023-06-30T03:13:59.087Z,81.69
2023-06-30T03:17:02.865Z,82.45
2023-06-30T03:20:13.366Z,82.22
2023-06-30T03:23:16.142Z,81.76
2023-06-30T03:26:18.859Z,81.67
2023-06-30T03:29:24.510Z,81.29
2023-06-30T03:32:27.410Z,81.76
2023-06-30T03:35:30.359Z,81.24
2023-06-30T03:38:33.107Z,81.51
2023-06-30T03:41:36.043Z,81.30
2023-06-30T03:44:40.287Z,81.20
2023-06-30T03:47:43.070Z,80.99
2023-06-30T03:50:45.988Z,81.01
2023-06-30T03:53:48.662Z,81.02
2023-06-30T03:56:51.421Z,80.85
2023-06-30T03:59:55.554Z,81.03
2023-06-30T04:02:58.336Z,81.40
2023-06-30T04:06:01.332Z,81.68
2023-06-30T04:09:17.683Z,81.25
2023-06-30T04:12:35.583Z,80.90
2023-06-30T04:15:39.921Z,80.44
2023-06-30T04:18:42.672Z,78.83
2023-06-30T04:21:45.585Z,79.06
2023-06-30T04:24:48.351Z,78.75
2023-06-30T04:27:51.173Z,78.75
2023-06-30T04:30:55.469Z,78.97
2023-06-30T04:33:58.367Z,78.69
2023-06-30T04:37:01.210Z,79.35
2023-06-30T04:40:05.862Z,78.17
2023-06-30T04:43:13.790Z,77.82
2023-06-30T04:46:18.197Z,78.28
2023-06-30T04:49:21.101Z,77.06
2023-06-30T04:52:23.850Z,76.15
2023-06-30T04:55:26.574Z,74.79
2023-06-30T04:58:29.454Z,74.64
2023-06-30T05:01:34.167Z,73.15
2023-06-30T05:04:37.023Z,75.10
2023-06-30T05:07:39.966Z,74.89
2023-06-30T05:10:42.754Z,74.45
2023-06-30T05:13:45.609Z,73.41
2023-06-30T05:16:50.248Z,71.39
2023-06-30T05:19:53.032Z,72.90
2023-06-30T05:22:55.899Z,71.79
2023-06-30T05:25:59.814Z,69.91
2023-06-30T05:29:05.257Z,68.57
2023-06-30T05:32:10.469Z,69.00
2023-06-30T05:35:13.202Z,67.96
2023-06-30T05:38:15.983Z,66.49
2023-06-30T05:41:18.768Z,66.80
2023-06-30T05:44:21.567Z,65.79
2023-06-30T05:47:25.770Z,65.54
2023-06-30T05:50:30.046Z,66.95
2023-06-30T05:53:32.971Z,67.16
2023-06-30T05:56:35.890Z,67.91
2023-06-30T05:59:38.654Z,67.91
2023-06-30T06:02:42.809Z,68.85
2023-06-30T06:05:46.010Z,68.57
2023-06-30T06:08:49.430Z,70.18
2023-06-30T06:11:52.492Z,69.67
2023-06-30T06:14:55.244Z,67.92
2023-06-30T06:17:59.385Z,69.47
2023-06-30T06:21:04.381Z,69.09
2023-06-30T06:24:08.423Z,69.88
2023-06-30T06:27:11.419Z,70.54
2023-06-30T06:30:15.006Z,70.20
2023-06-30T06:33:19.191Z,69.75
2023-06-30T06:36:22.478Z,70.85
2023-06-30T06:39:25.452Z,70.68
2023-06-30T06:42:28.346Z,70.69
2023-06-30T06:45:31.046Z,68.91
2023-06-30T06:48:35.388Z,69.90
2023-06-30T06:51:38.186Z,69.16
2023-06-30T06:54:41.071Z,70.72
2023-06-30T06:57:43.876Z,70.77
2023-06-30T07:00:48.202Z,70.79
2023-06-30T07:03:52.432Z,69.02
2023-06-30T07:06:55.672Z,69.96
2023-06-30T07:09:58.443Z,70.42
2023-06-30T07:13:01.214Z,70.65
2023-06-30T07:16:04.127Z,71.08
2023-06-30T07:19:08.310Z,70.87
2023-06-30T07:22:11.083Z,71.59
2023-06-30T07:25:14.092Z,71.54
2023-06-30T07:28:17.036Z,71.48
2023-06-30T07:31:19.857Z,71.17
2023-06-30T07:34:24.879Z,71.86
2023-06-30T07:37:27.601Z,70.58
2023-06-30T07:40:41.635Z,70.05
2023-06-30T07:43:49.176Z,69.46
2023-06-30T07:46:51.982Z,69.41
2023-06-30T07:49:56.139Z,69.86
2023-06-30T07:52:58.900Z,69.75
2023-06-30T07:56:01.761Z,69.36
2023-06-30T07:59:04.567Z,69.38
2023-06-30T08:02:07.900Z,69.01
2023-06-30T08:05:12.787Z,69.24
2023-06-30T08:08:15.731Z,69.62
2023-06-30T08:11:18.651Z,69.76
2023-06-30T08:14:21.401Z,68.93
2023-06-30T08:17:30.888Z,66.97
2023-06-30T08:20:43.804Z,64.96
2023-06-30T08:23:46.537Z,64.39
2023-06-30T08:26:49.442Z,64.37
2023-06-30T08:29:52.181Z,63.97
2023-06-30T08:32:57.663Z,65.00
2023-06-30T08:36:02.188Z,64.26
2023-06-30T08:39:05.164Z,66.22
2023-06-30T08:42:10.234Z,64.63
2023-06-30T08:45:15.095Z,65.16
2023-06-30T08:48:21.083Z,63.37
2023-06-30T08:51:25.999Z,64.13
2023-06-30T08:54:29.885Z,65.07
2023-06-30T08:57:33.808Z,66.01
2023-06-30T09:00:36.627Z,65.16
2023-06-30T09:03:40.519Z,66.46
2023-06-30T09:06:49.312Z,66.20
2023-06-30T09:09:55.957Z,66.87
2023-06-30T09:12:59.624Z,66.61
2023-06-30T09:16:07.739Z,67.12
2023-06-30T09:19:11.501Z,67.75
2023-06-30T09:22:53.832Z,68.17
2023-06-30T09:25:41.875Z,69.35
2023-06-30T09:28:45.212Z,71.54
2023-06-30T09:31:51.997Z,72.98
2023-06-30T09:34:55.464Z,74.91
2023-06-30T09:37:59.770Z,73.55
2023-06-30T09:41:06.462Z,72.53
2023-06-30T09:44:11.792Z,72.21
2023-06-30T09:47:19.396Z,71.50
2023-06-30T09:50:26.080Z,72.37
2023-06-30T09:53:37.928Z,71.83
2023-06-30T09:56:42.596Z,69.26
2023-06-30T09:59:47.547Z,69.22
2023-06-30T10:03:03.845Z,68.41
2023-06-30T10:06:06.868Z,70.17
2023-06-30T10:09:11.286Z,70.33
2023-06-30T10:12:16.768Z,70.58
2023-06-30T10:15:19.946Z,72.32
2023-06-30T10:18:22.859Z,73.91
2023-06-30T10:21:25.618Z,73.61
2023-06-30T10:24:31.611Z,73.94
2023-06-30T10:27:35.997Z,74.67
2023-06-30T10:30:39.548Z,75.57
2023-06-30T10:33:42.971Z,75.50
2023-06-30T10:36:46.528Z,74.26
2023-06-30T10:39:50.706Z,74.68
2023-06-30T10:42:55.593Z,75.11
2023-06-30T10:46:11.346Z,74.99
2023-06-30T10:49:20.015Z,75.23
2023-06-30T10:52:30.285Z,74.91
2023-06-30T10:55:34.709Z,75.36
2023-06-30T10:58:43.219Z,75.35
2023-06-30T11:02:13.789Z,74.54
2023-06-30T11:05:24.594Z,75.61
2023-06-30T11:08:27.732Z,75.27
2023-06-30T11:11:32.045Z,75.52
2023-06-30T11:14:34.818Z,75.17
2023-06-30T11:18:04.753Z,75.63
2023-06-30T11:21:09.186Z,73.31
2023-06-30T11:24:16.524Z,72.96
2023-06-30T11:27:20.868Z,74.10
2023-06-30T11:30:24.393Z,74.66
2023-06-30T11:33:27.144Z,71.32
2023-06-30T11:36:32.424Z,72.49
2023-06-30T11:39:36.756Z,73.04
2023-06-30T11:42:44.174Z,75.43
2023-06-30T11:45:57.216Z,74.56
2023-06-30T11:49:00.298Z,75.46
2023-06-30T11:52:03.330Z,74.42
2023-06-30T11:55:10.019Z,75.63
2023-06-30T11:58:19.973Z,76.64
2023-06-30T12:01:22.886Z,74.76
2023-06-30T12:04:36.918Z,74.28
2023-06-30T12:07:40.533Z,74.76
2023-06-30T12:10:44.246Z,73.73
2023-06-30T12:13:48.829Z,73.94
2023-06-30T12:16:52.728Z,74.42
2023-06-30T12:19:55.517Z,74.92
2023-06-30T12:22:58.583Z,75.04
2023-06-30T12:26:01.400Z,75.23
2023-06-30T12:29:06.083Z,76.10
2023-06-30T12:32:14.943Z,76.10
2023-06-30T12:35:17.879Z,77.18
2023-06-30T12:38:20.714Z,78.33
2023-06-30T12:41:24.176Z,78.80
2023-06-30T12:44:28.319Z,78.59
2023-06-30T12:47:31.288Z,77.32
2023-06-30T12:50:34.453Z,78.34
2023-06-30T12:53:37.784Z,78.19
2023-06-30T12:56:40.535Z,77.49
2023-06-30T12:59:44.949Z,78.71
2023-06-30T13:02:47.812Z,78.23
2023-06-30T13:05:52.249Z,76.93
2023-06-30T13:08:55.002Z,77.45
2023-06-30T13:11:58.461Z,77.42
2023-06-30T13:15:02.867Z,77.99
2023-06-30T13:18:05.615Z,78.54
2023-06-30T13:21:08.878Z,77.31
2023-06-30T13:24:12.696Z,77.04
2023-06-30T13:27:15.645Z,75.48
2023-06-30T13:30:19.907Z,76.05
2023-06-30T13:33:23.070Z,76.44
2023-06-30T13:36:27.452Z,76.94
2023-06-30T13:39:31.848Z,76.55
2023-06-30T13:42:36.026Z,76.32
2023-06-30T13:45:40.303Z,74.53
2023-06-30T13:48:43.322Z,75.17
2023-06-30T13:51:46.180Z,74.86
2023-06-30T13:54:48.925Z,73.87
2023-06-30T13:57:51.703Z,72.58
2023-06-30T14:00:56.013Z,72.58
2023-06-30T14:03:58.804Z,71.53
2023-06-30T14:07:03.652Z,71.86
2023-06-30T14:10:07.221Z,70.45
2023-06-30T14:13:10.021Z,70.74
2023-06-30T14:16:14.417Z,68.67
2023-06-30T14:19:17.309Z,69.77
2023-06-30T14:22:20.179Z,68.58
2023-06-30T14:25:25.412Z,67.12
2023-06-30T14:28:28.213Z,66.15
2023-06-30T14:31:35.667Z,64.61
2023-06-30T14:34:38.774Z,62.90
2023-06-30T14:37:41.650Z,62.87
2023-06-30T14:44:05.669Z,61.98
2023-06-30T14:47:10.104Z,62.02
2023-06-30T14:50:12.889Z,62.69
2023-06-30T14:53:16.508Z,65.67
2023-06-30T14:56:19.397Z,67.58
2023-06-30T14:59:22.171Z,68.83
2023-06-30T15:02:26.680Z,69.61
2023-06-30T15:05:30.601Z,71.86
2023-06-30T15:08:33.505Z,70.85
2023-06-30T15:11:36.357Z,70.27
2023-06-30T15:14:39.138Z,70.63
2023-06-30T15:17:43.527Z,68.52
2023-06-30T15:20:46.424Z,70.73
2023-06-30T15:23:49.182Z,69.90
2023-06-30T15:26:52.004Z,69.04
2023-06-30T15:29:55.059Z,71.12
2023-06-30T15:32:59.421Z,70.32
2023-06-30T15:36:02.286Z,68.82
2023-06-30T15:39:05.485Z,68.83
2023-06-30T15:42:08.649Z,68.92
2023-06-30T15:45:11.986Z,69.64
2023-06-30T15:48:16.211Z,68.33
2023-06-30T15:51:21.114Z,69.58
2023-06-30T15:54:24.061Z,70.56
2023-06-30T15:57:26.880Z,70.32
2023-06-30T16:00:29.629Z,69.50
2023-06-30T16:03:34.050Z,69.86
2023-06-30T16:06:36.801Z,70.37
2023-06-30T16:09:39.681Z,70.22
2023-06-30T16:12:42.484Z,68.91
2023-06-30T16:15:45.716Z,69.45
2023-06-30T16:18:50.411Z,70.64
2023-06-30T16:21:54.521Z,69.28
2023-06-30T16:25:00.482Z,70.47
2023-06-30T16:28:03.425Z,70.35
2023-06-30T16:31:06.180Z,71.06
2023-06-30T16:34:10.468Z,68.89
2023-06-30T16:37:13.261Z,69.44
2023-06-30T16:40:16.112Z,69.59
2023-06-30T16:43:19.026Z,68.85
2023-06-30T16:46:21.780Z,68.35
2023-06-30T16:49:26.970Z,67.37
2023-06-30T16:52:29.744Z,66.72
2023-06-30T16:55:32.637Z,67.26
2023-06-30T16:58:35.548Z,65.37
2023-06-30T17:01:38.292Z,66.05
2023-06-30T17:04:42.767Z,64.63
2023-06-30T17:07:45.707Z,65.21
2023-06-30T17:10:48.636Z,65.41
2023-06-30T17:13:51.602Z,64.50
2023-06-30T17:16:54.393Z,64.22
2023-06-30T17:19:58.647Z,65.22
2023-06-30T17:23:01.496Z,66.79
2023-06-30T17:26:04.384Z,66.90
2023-06-30T17:29:07.170Z,67.04
2023-06-30T17:32:10.220Z,67.66
2023-06-30T17:35:14.496Z,68.38
2023-06-30T17:38:17.243Z,68.18
2023-06-30T17:41:20.373Z,68.97
2023-06-30T17:44:24.294Z,68.79
2023-06-30T17:47:27.055Z,68.86
2023-06-30T17:50:31.254Z,67.81
2023-06-30T17:53:34.207Z,66.95
2023-06-30T17:56:37.038Z,66.31
2023-06-30T17:59:39.901Z,66.92
2023-06-30T18:02:42.709Z,67.15
2023-06-30T18:05:47.150Z,67.00
2023-06-30T18:08:50.127Z,65.90
2023-06-30T18:11:53.061Z,66.50
2023-06-30T18:14:55.847Z,67.78
2023-06-30T18:17:59.150Z,68.14
2023-06-30T18:21:03.306Z,68.03
2023-06-30T18:24:07.837Z,68.68
2023-06-30T18:27:10.565Z,68.71
2023-06-30T18:30:13.730Z,69.31
2023-06-30T18:33:16.679Z,69.96
2023-06-30T18:36:20.925Z,70.21
2023-06-30T18:39:23.669Z,70.90
2023-06-30T18:42:26.402Z,70.74
2023-06-30T18:45:29.268Z,71.02
2023-06-30T18:48:32.301Z,71.21
2023-06-30T18:51:36.470Z,71.63
2023-06-30T18:54:39.286Z,72.28
2023-06-30T18:57:42.241Z,72.19
2023-06-30T19:00:45.244Z,71.58
2023-06-30T19:03:49.364Z,72.83
2023-06-30T19:06:53.934Z,72.94
2023-06-30T19:09:56.628Z,73.23
2023-06-30T19:12:59.705Z,73.58
2023-06-30T19:16:02.662Z,73.67
2023-06-30T19:19:05.431Z,74.62
2023-06-30T19:22:09.714Z,72.98
2023-06-30T19:25:12.465Z,73.03
2023-06-30T19:28:15.414Z,72.62
2023-06-30T19:31:18.413Z,70.87
2023-06-30T19:34:21.254Z,71.47
2023-06-30T19:37:25.491Z,71.95
2023-06-30T19:40:28.314Z,71.66
2023-06-30T19:43:31.213Z,72.15
2023-06-30T19:46:35.425Z,73.62
2023-06-30T19:49:38.725Z,74.14
2023-06-30T19:52:42.927Z,74.84
2023-06-30T19:55:46.038Z,74.43
2023-06-30T19:58:49.516Z,74.57
2023-06-30T20:01:55.832Z,74.36
2023-06-30T20:04:58.629Z,74.29
2023-06-30T20:08:03.086Z,74.55
2023-06-30T20:11:05.844Z,74.63
2023-06-30T20:14:08.857Z,74.32
2023-06-30T20:17:11.767Z,74.25
2023-06-30T20:20:15.097Z,74.07
2023-06-30T20:23:19.632Z,75.76
2023-06-30T20:26:22.407Z,76.00
2023-06-30T20:29:25.323Z,75.43
2023-06-30T20:32:28.258Z,76.61
2023-06-30T20:35:31.043Z,76.34
2023-06-30T20:38:35.145Z,76.50
2023-06-30T20:41:37.888Z,77.06
2023-06-30T20:44:40.796Z,76.88
2023-06-30T20:47:43.672Z,76.94
2023-06-30T20:50:46.755Z,76.77
2023-06-30T20:53:51.169Z,76.47
2023-06-30T20:56:55.476Z,76.48
2023-06-30T20:59:58.325Z,76.61
2023-06-30T21:03:01.306Z,76.22
2023-06-30T21:06:04.084Z,76.49
2023-06-30T21:09:08.320Z,76.64
2023-06-30T21:12:11.234Z,75.57
2023-06-30T21:15:14.118Z,76.18
2023-06-30T21:18:17.194Z,76.58
2023-06-30T21:21:20.131Z,77.25
2023-06-30T21:24:24.417Z,77.02
2023-06-30T21:27:27.917Z,76.99
2023-06-30T21:30:30.905Z,76.81
2023-06-30T21:33:33.718Z,76.98
2023-06-30T21:36:39.547Z,77.40
2023-06-30T21:39:44.298Z,77.44
2023-06-30T21:42:47.026Z,77.91
2023-06-30T21:45:49.891Z,77.71
2023-06-30T21:48:53.986Z,77.22
2023-06-30T21:52:16.115Z,78.02
2023-06-30T21:55:20.628Z,76.50
2023-06-30T21:58:27.707Z,77.37
2023-06-30T22:01:39.929Z,77.06
2023-06-30T22:04:43.805Z,77.53
2023-06-30T22:07:46.759Z,77.50
2023-06-30T22:10:51.194Z,77.92
2023-06-30T22:13:54.118Z,77.51
2023-06-30T22:16:57.904Z,77.58
2023-06-30T22:20:00.633Z,77.42
2023-06-30T22:23:03.531Z,77.50
2023-06-30T22:26:07.896Z,77.55
2023-06-30T22:29:10.659Z,78.04
2023-06-30T22:32:14.704Z,77.13
2023-06-30T22:35:17.556Z,77.67
2023-06-30T22:38:20.477Z,77.07
2023-06-30T22:41:24.744Z,77.88
2023-06-30T22:44:27.493Z,76.88
2023-06-30T22:47:30.372Z,76.50
2023-06-30T22:50:33.205Z,77.10
2023-06-30T22:53:36.074Z,76.90
2023-06-30T22:56:40.455Z,76.62
2023-06-30T22:59:43.165Z,76.03
2023-06-30T23:02:46.114Z,76.03
2023-06-30T23:05:48.919Z,77.62
2023-06-30T23:08:51.794Z,77.95
2023-06-30T23:11:56.014Z,77.14
2023-06-30T23:14:58.756Z,76.88
2023-06-30T23:18:01.669Z,76.87
2023-06-30T23:21:10.305Z,76.82
2023-06-30T23:24:13.268Z,76.90
2023-06-30T23:27:18.105Z,77.21
2023-06-30T23:30:26.397Z,78.24
2023-06-30T23:33:29.300Z,78.98
2023-06-30T23:36:32.349Z,79.46
2023-06-30T23:39:36.962Z,78.79
2023-06-30T23:42:41.250Z,78.31
2023-06-30T23:45:43.948Z,78.41
2023-06-30T23:48:47.229Z,79.35
2023-06-30T23:51:51.193Z,80.20
2023-06-30T23:54:54.139Z,80.40
2023-06-30T23:57:58.225Z,80.16
